Melton Hill Observed Data For Previous 48 Hours

Caption
Day and Hour Reservoir Elevation (behind dam)* Tailwater Elevation (below dam)* Average Hourly Discharge*
11/11/2018 2 AM EST 794.65 739.48 318
11/11/2018 3 AM EST 794.68 739.54 0
11/11/2018 4 AM EST 794.75 739.78 0
11/11/2018 5 AM EST 794.87 739.88 0
11/11/2018 6 AM EST 794.80 740.19 376
11/11/2018 7 AM EST 794.66 741.06 6,630
11/11/2018 8 AM EST 794.58 741.53 12,396
11/11/2018 9 AM EST 794.50 741.55 12,448
11/11/2018 10 AM EST 794.38 741.44 12,509
11/11/2018 11 AM EST 794.20 741.41 12,411
11/11/2018 12 PM EST 794.02 741.40 12,503
11/11/2018 1 PM EST 793.98 740.13 6,495
11/11/2018 2 PM EST 794.01 739.17 306
11/11/2018 3 PM EST 794.00 739.34 0
11/11/2018 4 PM EST 794.01 739.71 0
11/11/2018 5 PM EST 794.03 739.81 0
11/11/2018 6 PM EST 794.07 739.56 0
11/11/2018 7 PM EST 794.06 740.03 402
11/11/2018 8 PM EST 794.10 740.11 6,151
11/11/2018 9 PM EST 794.02 740.03 6,005
11/11/2018 10 PM EST 794.10 739.88 6,182
11/11/2018 11 PM EST 794.20 739.07 209
11/12/2018 12 AM EST 794.25 739.20 0
11/12/2018 1 AM EST 794.30 739.43 0
11/12/2018 2 AM EST 794.42 739.54 0
11/12/2018 3 AM EST 794.49 739.36 0
11/12/2018 4 AM EST 794.52 739.29 0
11/12/2018 5 AM EST 794.40 739.84 403
11/12/2018 6 AM EST 794.48 739.92 6,125
11/12/2018 7 AM EST 794.48 739.84 6,158
11/12/2018 8 AM EST 794.55 739.68 6,193
11/12/2018 9 AM EST 794.48 739.59 6,406
11/12/2018 10 AM EST 794.48 739.62 6,389
11/12/2018 11 AM EST 794.46 739.61 6,388
11/12/2018 12 PM EST 794.46 739.61 6,371
11/12/2018 1 PM EST 794.44 739.65 6,279
11/12/2018 2 PM EST 794.43 739.67 6,327
11/12/2018 3 PM EST 794.45 739.68 6,271
11/12/2018 4 PM EST 794.45 739.66 6,226
11/12/2018 5 PM EST 794.43 739.65 6,505
11/12/2018 6 PM EST 794.27 740.47 6,975
11/12/2018 7 PM EST 794.26 741.08 12,704
11/12/2018 8 PM EST 794.15 741.23 12,669
11/12/2018 9 PM EST 794.11 741.23 12,642
11/12/2018 10 PM EST 793.93 741.21 12,640
11/12/2018 11 PM EST 793.95 739.90 6,541
11/13/2018 12 AM EST 793.84 739.67 6,340
11/13/2018 1 AM EST 793.94 738.87 321
11/13/2018 2 AM EST 793.94 739.06 0
11/13/2018 3 AM EST 793.98 739.35 0
11/13/2018 4 AM EST 794.03 739.48 0
11/13/2018 5 AM EST 794.06 739.23 0
11/13/2018 6 AM EST 794.07 739.14 0
11/13/2018 7 AM EST 793.96 739.73 407
11/13/2018 8 AM EST 793.79 740.69 6,625
11/13/2018 9 AM EST 793.76 741.19 12,309
11/13/2018 10 AM EST 793.80 741.25 12,304

Elevations are in feet above sea level. Discharges are in cubic feet per second and are reported at the end of the hour.